Newburg, WI (53060)

6:16 AM CST on December 04, 2016 (GMT -0600)
Newburg Fire Station # 1 | | Change Station
Active Advisory: Winter Weather Advisory

Elev 850 ft 43.43 °N, 88.05 °W | Updated 14 minutes ago

Overcast
Overcast
30.2 °F
Feels Like 30 °F
N
2.0
Wind Variable Wind from West

Today
High -- | Low -- °F
--% Chance of Precip.
Yesterday
High -- | Low -- °F
Precip. -- in
Pressure 30.17 in
Visibility 10.0 miles
Clouds Overcast 4100 ft
Windchill 30 °F
Dew Point 25 °F
Humidity 82%
Rainfall 0.00 in
Snow Depth Not available.
7:08 AM 4:16 PM
Waxing Crescent, 22% visible
METAR KETB 041200Z AUTO 19003KT 10SM OVC041 M01/M03 A3017 RMK AO2
Pressure 30.17 in
Visibility 10.0 miles
Clouds Overcast 4100 ft
Windchill 30 °F
Dew Point 25 °F
Humidity 82%
Rainfall 0.00 in
Snow Depth Not available.
7:08 AM 4:16 PM
Waxing Crescent, 22% visible
METAR KETB 041200Z AUTO 19003KT 10SM OVC041 M01/M03 A3017 RMK AO2

10-Day Weather Forecast

Almanac

Astronomy

Dec. 04, 2016 Rise Set
Actual Time
Civil Twilight
Nautical Twilight
Astronomical Twilight
Moon
Length of Visible Light
Length of Day
Tomorrow will be .
, % of the Moon is Illuminated

Today's Extremes

State Highs State Lows

Community

WunderPhotos

Upload Photos

1,955,591 photos uploaded!

WunderBlog® & News

Nearby

Air Quality

  Air Quality AQ Index Pollutant
Not available.

Snow Depth

Station Depth Elevation

Earthquake Activity

City Distance Mag. Time & Date
Minimum magnitude displayed is 2.5.

Coastal Water Temperatures

Place Temperature

Stations

Nearby Weather Stations

Station Location Temp. Windchill Dew Point Humidity Wind Precip. Elev Updated Type
                   

Watches & Warnings

Winter Weather Advisory
Issued: 3:28 AM CST Dec. 4, 2016 – National Weather Service

... Winter Weather Advisory now in effect from 9 am this morning
to 6 PM CST this evening...

The Winter Weather Advisory is now in effect from 9 am this
morning to 6 PM CST this evening.

* Timing... snow beginning late this morning... tapering off late in
the afternoon or early evening.

* Snow accumulations... 2 to 4 inches.

* Winds... south to southeast 5 to 15 mph.

* Impacts... reduced visibility and slippery spots on untreated
roads creating hazardous travel.

Precautionary/preparedness actions...

A Winter Weather Advisory for snow means that periods of snow
will cause primarily travel difficulties. Be prepared for snow
covered roads and limited visibilities... and use caution while
driving.